Andover, OH (44003)

5:26 PM EDT on April 24, 2017 (GMT -0400)
Ralph's House in Williamsfield | | Change Station

Elev 285 ft 41.54 °N, 80.58 °W | Updated 22 seconds ago

Clear
Clear
71.0 °F
Feels Like 76 °F
N
10.0
Wind Variable Wind from ESE

Today
High -- | Low -- °F
--% Chance of Precip.
Yesterday
High -- | Low -- °F
Precip. -- in
Pressure 29.98 in
Visibility 10.0 miles
Clouds Clear
Heat Index 76 °F
Dew Point 39 °F
Humidity 31%
Rainfall 0.00 in
Snow Depth Not available.
6:28 AM 8:13 PM
Waning Crescent, 4% visible
METAR KHZY 242053Z AUTO 03008G16KT 10SM CLR 18/06 A2997 RMK AO2 SLP150 T01830056 58016 TSNO
Pressure 29.98 in
Visibility 10.0 miles
Clouds Clear
Heat Index 76 °F
Dew Point 39 °F
Humidity 31%
Rainfall 0.00 in
Snow Depth Not available.
6:28 AM 8:13 PM
Waning Crescent, 4% visible
METAR KHZY 242053Z AUTO 03008G16KT 10SM CLR 18/06 A2997 RMK AO2 SLP150 T01830056 58016 TSNO

Get Severe Weather Alerts

Thanks for signing up!

Be on the lookout for a verification email in your inbox.

You'll start receiving the daily forecast at 8 AM.

×

10-Day Weather Forecast

Almanac

Astronomy

Apr. 24, 2017 Rise Set
Actual Time
Civil Twilight
Nautical Twilight
Astronomical Twilight
Moon
Length of Visible Light
Length of Day
Tomorrow will be .
, % of the Moon is Illuminated

Today's Extremes

State Highs State Lows

Community

WunderPhotos

WunderBlog® & News

Nearby

Air Quality

  Air Quality AQ Index Pollutant
Not available.

Snow Depth

Station Depth Elevation

Earthquake Activity

City Distance Mag. Time & Date
Minimum magnitude displayed is 2.5.

Coastal Water Temperatures

Place Temperature

Stations

Nearby Weather Stations

Station Location Temp. Windchill Dew Point Humidity Wind Precip. Elev Updated Type
                   

Watches & Warnings

There are currently no watches in effect.